Time;durP1;ratioP1;P1;durP2;ratioP2;P2;SDS_P1;SDS_P2;PMS_P1;PMS_P2;Temp;Humidity;BMP_temperature;BMP_pressure;BME280_temperature;BME280_humidity;BME280_pressure;Samples;Min_cycle;Max_cycle;Signal;HPM_P1;HPM_P2
2023/08/21 00:00:18;;;;;;;6.97;5.97;;;;;;;21.75;100.00;96344.53;1034175;28;20590;-74
2023/08/21 00:00:49;;;;;;;13.77;7.25;;;;;;;21.74;100.00;96348.31;1034534;28;20104;-77
2023/08/21 00:01:19;;;;;;;10.15;6.28;;;;;;;21.75;100.00;96343.75;1026682;28;20130;-75
2023/08/21 00:01:49;;;;;;;19.35;7.40;;;;;;;21.68;100.00;96332.78;1026576;28;20433;-76
2023/08/21 00:02:20;;;;;;;7.22;6.53;;;;;;;21.68;100.00;96332.78;1022554;29;20023;-75
2023/08/21 00:02:50;;;;;;;15.07;6.88;;;;;;;21.56;100.00;96322.72;1022617;29;20023;-75
2023/08/21 00:03:22;;;;;;;14.45;6.63;;;;;;;21.71;100.00;96346.25;1022601;29;20030;-74
2023/08/21 00:03:52;;;;;;;8.07;6.70;;;;;;;21.70;100.00;96350.06;1022482;29;20070;-76
2023/08/21 00:04:22;;;;;;;10.48;6.95;;;;;;;21.69;100.00;96343.13;1022923;28;20023;-77
2023/08/21 00:04:53;;;;;;;18.42;7.07;;;;;;;21.70;100.00;96343.94;1026729;28;20023;-76
2023/08/21 00:05:24;;;;;;;9.50;6.25;;;;;;;21.68;100.00;96341.56;1026795;28;20018;-74
2023/08/21 00:05:57;;;;;;;12.23;6.43;;;;;;;21.65;100.00;96342.19;1030643;28;20026;-73
2023/08/21 00:06:27;;;;;;;17.50;7.05;;;;;;;21.64;100.00;96346.75;1030927;28;20472;-74
2023/08/21 00:06:58;;;;;;;16.10;7.00;;;;;;;21.65;100.00;96342.19;1030557;28;20030;-74
2023/08/21 00:07:28;;;;;;;15.40;7.07;;;;;;;21.65;100.00;96347.53;1026363;28;20098;-75
2023/08/21 00:07:59;;;;;;;18.70;7.07;;;;;;;21.62;100.00;96348.16;1022588;29;20508;-77
2023/08/21 00:08:29;;;;;;;7.68;6.40;;;;;;;21.61;100.00;96341.28;1026770;28;20049;-76
2023/08/21 00:09:01;;;;;;;15.98;7.30;;;;;;;21.60;100.00;96343.16;1030902;28;20030;-74
2023/08/21 00:09:32;;;;;;;7.68;6.60;;;;;;;21.61;100.00;96347.38;1030631;28;20030;-75
2023/08/21 00:10:02;;;;;;;11.02;7.28;;;;;;;21.61;100.00;96341.28;1030703;28;20425;-76
2023/08/21 00:10:33;;;;;;;9.80;6.72;;;;;;;21.62;100.00;96348.94;1026283;28;20128;-75
2023/08/21 00:11:03;;;;;;;13.98;7.07;;;;;;;21.55;100.00;96342.53;1026705;28;20023;-75
2023/08/21 00:11:34;;;;;;;10.13;6.45;;;;;;;21.58;100.00;96344.56;1026763;28;20034;-74
2023/08/21 00:12:08;;;;;;;10.38;6.78;;;;;;;21.51;100.00;96337.06;1026650;28;20023;-73
2023/08/21 00:12:39;;;;;;;6.53;5.88;;;;;;;21.52;100.00;96345.84;1027235;28;20751;-77
2023/08/21 00:13:09;;;;;;;15.38;7.07;;;;;;;21.52;100.00;96341.28;1030694;28;20038;-75
2023/08/21 00:13:44;;;;;;;11.35;6.93;;;;;;;21.52;100.00;96348.50;1030388;28;20030;-75
2023/08/21 00:14:15;;;;;;;7.93;6.38;;;;;;;21.46;100.00;96344.44;1028472;28;20657;-76
2023/08/21 00:14:45;;;;;;;11.38;6.40;;;;;;;21.46;100.00;96342.53;1034829;28;20030;-74
2023/08/21 00:15:16;;;;;;;11.32;6.68;;;;;;;21.46;100.00;96345.22;1030677;28;20034;-76
2023/08/21 00:15:46;;;;;;;9.82;6.60;;;;;;;21.45;100.00;96348.22;1031348;28;20045;-77
2023/08/21 00:16:17;;;;;;;6.75;6.05;;;;;;;21.40;100.00;96341.94;1034782;28;20033;-76
2023/08/21 00:16:48;;;;;;;8.90;6.10;;;;;;;21.41;100.00;96343.50;1030919;28;20113;-75
2023/08/21 00:17:18;;;;;;;7.65;6.53;;;;;;;21.35;100.00;96341.31;1030558;28;20022;-75
2023/08/21 00:17:48;;;;;;;13.77;6.93;;;;;;;21.42;100.00;96342.41;1030803;28;20037;-74
2023/08/21 00:18:19;;;;;;;11.68;6.30;;;;;;;21.42;100.00;96345.06;1030761;28;20046;-74
2023/08/21 00:18:49;;;;;;;10.85;7.07;;;;;;;21.42;100.00;96339.72;1033154;28;20381;-73
2023/08/21 00:19:22;;;;;;;12.95;6.75;;;;;;;21.41;100.00;96342.72;1030028;28;20038;-74
2023/08/21 00:19:53;;;;;;;10.00;6.72;;;;;;;21.42;100.00;96345.06;1030502;28;20038;-76
2023/08/21 00:20:23;;;;;;;7.07;6.38;;;;;;;21.40;100.00;96341.94;1025970;28;20058;-76
2023/08/21 00:20:54;;;;;;;8.35;6.80;;;;;;;21.41;100.00;96342.72;1027194;28;20022;-75
2023/08/21 00:21:24;;;;;;;9.57;7.13;;;;;;;21.40;100.00;96339.28;1030342;28;20033;-73
2023/08/21 00:21:55;;;;;;;10.13;7.15;;;;;;;21.41;100.00;96342.72;1026738;28;20030;-73
2023/08/21 00:22:25;;;;;;;10.85;7.13;;;;;;;21.40;100.00;96346.50;1026185;28;20026;-75
2023/08/21 00:22:55;;;;;;;8.32;6.78;;;;;;;21.35;100.00;96334.09;1026702;28;20042;-73
2023/08/21 00:23:26;;;;;;;7.30;6.40;;;;;;;21.41;100.00;96342.72;1026695;28;20033;-73
2023/08/21 00:23:56;;;;;;;8.55;6.80;;;;;;;21.39;100.00;96342.25;1030675;28;20027;-73
2023/08/21 00:24:27;;;;;;;9.70;7.15;;;;;;;21.38;100.00;96344.13;1034590;28;20471;-74
2023/08/21 00:24:57;;;;;;;9.80;7.07;;;;;;;21.37;100.00;96342.56;1034658;28;20033;-75
2023/08/21 00:25:28;;;;;;;15.77;7.63;;;;;;;21.32;100.00;96336.56;1034760;28;20018;-75
2023/08/21 00:25:58;;;;;;;12.27;7.25;;;;;;;21.34;100.00;96343.22;1034577;28;20014;-74
2023/08/21 00:26:29;;;;;;;8.75;7.15;;;;;;;21.32;100.00;96340.03;1034397;28;20018;-75
2023/08/21 00:26:59;;;;;;;16.88;7.70;;;;;;;21.27;100.00;96328.75;1030625;28;20038;-76
2023/08/21 00:27:30;;;;;;;15.30;6.80;;;;;;;21.31;100.00;96335.03;1030674;28;20890;-74
2023/08/21 00:28:00;;;;;;;8.57;6.80;;;;;;;21.31;100.00;96338.47;1034656;28;20042;-72
2023/08/21 00:28:33;;;;;;;8.50;6.88;;;;;;;21.31;100.00;96341.13;1034720;28;20124;-76
2023/08/21 00:29:03;;;;;;;10.25;7.75;;;;;;;21.29;100.00;96337.22;1034479;28;20040;-76
2023/08/21 00:29:34;;;;;;;8.90;7.32;;;;;;;21.28;100.00;96341.00;1034692;28;20030;-75
2023/08/21 00:30:04;;;;;;;7.70;6.93;;;;;;;21.22;100.00;96334.25;1030682;28;20030;-72
2023/08/21 00:30:35;;;;;;;11.15;7.10;;;;;;;21.21;100.00;96333.47;1025921;28;20031;-74
2023/08/21 00:31:06;;;;;;;11.27;7.90;;;;;;;21.19;100.00;96340.97;1030438;28;20504;-74
2023/08/21 00:31:36;;;;;;;7.78;6.95;;;;;;;21.23;100.00;96338.47;1026537;28;20073;-76
2023/08/21 00:32:07;;;;;;;9.23;7.38;;;;;;;21.18;100.00;96334.09;1026532;28;20030;-76
2023/08/21 00:32:37;;;;;;;7.53;6.82;;;;;;;21.18;100.00;96347.44;1022489;28;20432;-75
2023/08/21 00:33:08;;;;;;;9.75;7.90;;;;;;;21.17;100.00;96349.31;1014672;29;20088;-73
2023/08/21 00:33:38;;;;;;;8.60;6.97;;;;;;;21.07;100.00;96333.63;1018721;28;20035;-73
2023/08/21 00:34:09;;;;;;;11.32;7.22;;;;;;;21.11;100.00;96339.13;1026725;28;20034;-75
2023/08/21 00:34:39;;;;;;;10.75;7.63;;;;;;;21.11;100.00;96352.47;1030362;28;20030;-73
2023/08/21 00:35:10;;;;;;;9.65;6.65;;;;;;;21.00;100.00;96333.31;1030702;28;20026;-75
2023/08/21 00:35:41;;;;;;;10.00;7.05;;;;;;;21.07;100.00;96348.88;1026578;28;20571;-76
2023/08/21 00:36:12;;;;;;;18.98;7.90;;;;;;;21.03;100.00;96342.59;1026472;28;20018;-77
2023/08/21 00:36:42;;;;;;;12.82;7.28;;;;;;;21.04;100.00;96349.50;1026522;28;20070;-74
2023/08/21 00:37:12;;;;;;;9.93;7.22;;;;;;;20.96;100.00;96343.06;1026825;28;20038;-75
2023/08/21 00:37:43;;;;;;;10.77;7.65;;;;;;;20.98;100.00;96348.84;1022753;28;20090;-73
2023/08/21 00:38:13;;;;;;;9.40;7.88;;;;;;;20.88;100.00;96344.59;1026279;28;20035;-73
2023/08/21 00:38:44;;;;;;;7.63;6.93;;;;;;;20.95;100.00;96354.81;1026028;28;20086;-76
2023/08/21 00:39:14;;;;;;;9.68;7.18;;;;;;;20.86;100.00;96338.81;1026572;28;20099;-73
2023/08/21 00:39:45;;;;;;;8.15;7.35;;;;;;;20.91;100.00;96351.22;1030598;28;20037;-76
2023/08/21 00:40:15;;;;;;;8.15;7.00;;;;;;;20.90;100.00;96354.97;1030736;28;20022;-75
2023/08/21 00:40:46;;;;;;;11.75;7.82;;;;;;;20.90;100.00;96353.09;1033869;28;20129;-74
2023/08/21 00:41:16;;;;;;;9.18;7.30;;;;;;;20.91;100.00;96356.53;1030416;28;20027;-74
2023/08/21 00:41:47;;;;;;;8.70;7.63;;;;;;;20.90;100.00;96352.31;1030519;28;20084;-76
2023/08/21 00:42:17;;;;;;;8.73;7.22;;;;;;;20.83;100.00;96339.44;1030694;28;20034;-76
2023/08/21 00:42:47;;;;;;;10.07;7.28;;;;;;;20.86;100.00;96340.72;1034590;28;20033;-74
2023/08/21 00:43:18;;;;;;;9.13;7.32;;;;;;;20.89;100.00;96348.88;1036922;28;20033;-75
2023/08/21 00:43:51;;;;;;;8.52;7.60;;;;;;;20.89;100.00;96354.22;1034591;28;20033;-74
2023/08/21 00:44:22;;;;;;;9.25;6.88;;;;;;;20.89;100.00;96348.06;1034694;28;20489;-75
2023/08/21 00:44:52;;;;;;;9.45;6.93;;;;;;;20.88;100.00;96352.63;1030042;28;20046;-75
2023/08/21 00:45:22;;;;;;;8.52;7.40;;;;;;;20.82;100.00;96343.19;1030978;28;20483;-75
2023/08/21 00:45:53;;;;;;;10.15;7.45;;;;;;;20.87;100.00;96347.59;1030545;28;20463;-73
2023/08/21 00:46:23;;;;;;;9.45;7.53;;;;;;;20.85;100.00;96353.25;1026482;28;20034;-73
2023/08/21 00:46:54;;;;;;;8.82;7.93;;;;;;;20.81;100.00;96344.28;1034579;28;20522;-77
2023/08/21 00:47:24;;;;;;;11.52;7.35;;;;;;;20.76;100.00;96339.13;1030571;28;20034;-75
2023/08/21 00:47:55;;;;;;;8.35;7.55;;;;;;;20.78;100.00;96346.81;1030496;28;20046;-73
2023/08/21 00:48:25;;;;;;;8.73;7.88;;;;;;;20.74;100.00;96338.66;1026207;28;20015;-75
2023/08/21 00:48:56;;;;;;;8.00;7.28;;;;;;;20.77;100.00;96346.03;1018672;29;20449;-75
2023/08/21 00:49:26;;;;;;;8.65;7.10;;;;;;;20.75;100.00;96342.88;1022629;28;20015;-74
2023/08/21 00:49:57;;;;;;;8.27;7.47;;;;;;;20.71;100.00;96341.94;1029172;28;20110;-72
2023/08/21 00:50:27;;;;;;;9.23;7.85;;;;;;;20.73;100.00;96347.75;1018305;29;20023;-75
2023/08/21 00:50:58;;;;;;;8.98;7.43;;;;;;;20.73;100.00;96345.09;1022295;29;20015;-74
2023/08/21 00:51:28;;;;;;;9.52;8.07;;;;;;;20.64;100.00;96346.94;1022390;29;20512;-75
2023/08/21 00:51:59;;;;;;;9.65;8.20;;;;;;;20.68;100.00;96356.69;1022378;29;20489;-77
2023/08/21 00:52:29;;;;;;;12.98;7.85;;;;;;;20.66;100.00;96358.09;1022730;28;20131;-75
2023/08/21 00:53:00;;;;;;;11.10;7.40;;;;;;;20.64;100.00;96355.72;1026443;28;20034;-73
2023/08/21 00:53:30;;;;;;;9.82;7.82;;;;;;;20.64;100.00;96358.41;1022285;28;20106;-73
2023/08/21 00:54:01;;;;;;;10.07;7.70;;;;;;;20.61;100.00;96353.69;1022512;29;20015;-75
2023/08/21 00:54:31;;;;;;;10.27;8.20;;;;;;;20.62;100.00;96359.81;1026472;28;20031;-74
2023/08/21 00:55:02;;;;;;;9.80;7.57;;;;;;;20.56;100.00;96345.84;1026336;28;20029;-74
2023/08/21 00:55:33;;;;;;;10.75;7.60;;;;;;;20.57;100.00;96351.97;1018547;29;20098;-74
2023/08/21 00:56:04;;;;;;;8.73;7.63;;;;;;;20.54;100.00;96347.25;1030384;28;20019;-73
2023/08/21 00:56:34;;;;;;;13.98;7.95;;;;;;;20.57;100.00;96359.97;1022553;28;20019;-73
2023/08/21 00:57:05;;;;;;;11.75;7.80;;;;;;;20.55;100.00;96360.25;1022588;29;20015;-75
2023/08/21 00:57:36;;;;;;;12.68;8.35;;;;;;;20.55;100.00;96357.59;1022491;29;20038;-74
2023/08/21 00:58:06;;;;;;;10.30;8.35;;;;;;;20.52;100.00;96354.75;1022694;28;20062;-73
2023/08/21 00:58:36;;;;;;;10.07;8.23;;;;;;;20.47;100.00;96343.13;1022403;29;20588;-76
2023/08/21 00:59:08;;;;;;;9.43;7.82;;;;;;;20.51;100.00;96353.22;1022659;28;20028;-76
2023/08/21 00:59:38;;;;;;;8.75;7.45;;;;;;;20.41;100.00;96347.03;1026528;28;20136;-75
2023/08/21 01:00:12;;;;;;;17.05;8.40;;;;;;;20.44;100.00;96346.41;1030239;28;20015;-76
2023/08/21 01:00:45;;;;;;;12.00;8.27;;;;;;;20.39;100.00;96343.13;1021837;29;20034;-74
2023/08/21 01:01:15;;;;;;;15.80;8.13;;;;;;;20.43;100.00;96354.75;1022529;29;20420;-75
2023/08/21 01:01:46;;;;;;;9.20;7.93;;;;;;;20.40;100.00;96358.81;1019354;29;20035;-75
2023/08/21 01:02:17;;;;;;;10.35;8.35;;;;;;;20.36;100.00;96355.19;1023489;28;20058;-73
2023/08/21 01:02:48;;;;;;;9.38;7.88;;;;;;;20.35;100.00;96345.59;1026546;28;20033;-75
2023/08/21 01:03:18;;;;;;;9.65;7.53;;;;;;;20.29;100.00;96346.06;1026744;28;20501;-75
2023/08/21 01:03:49;;;;;;;9.15;7.72;;;;;;;20.30;100.00;96350.31;1030472;28;20032;-74
2023/08/21 01:04:19;;;;;;;15.07;8.18;;;;;;;20.30;100.00;96353.75;1026500;28;20015;-77
2023/08/21 01:04:50;;;;;;;11.40;8.00;;;;;;;20.27;100.00;96354.38;1030588;28;20098;-74
2023/08/21 01:05:22;;;;;;;9.20;8.32;;;;;;;20.26;100.00;96352.81;1028217;28;20026;-75
2023/08/21 01:05:52;;;;;;;9.30;8.38;;;;;;;20.25;100.00;96357.38;1025980;28;20027;-76
2023/08/21 01:06:23;;;;;;;9.52;8.25;;;;;;;20.25;100.00;96353.88;1029456;28;20027;-75
2023/08/21 01:06:53;;;;;;;10.57;8.10;;;;;;;20.23;100.00;96353.44;1028518;28;20035;-75
2023/08/21 01:07:24;;;;;;;11.20;8.05;;;;;;;20.22;100.00;96355.31;1025187;28;20030;-74
2023/08/21 01:08:03;;;;;;;9.73;8.32;;;;;;;20.13;100.00;96337.72;1032899;28;20021;-75
2023/08/21 01:08:46;;;;;;;13.32;8.55;;;;;;;20.16;100.00;96345.09;1029230;28;20069;-75
2023/08/21 01:09:31;;;;;;;13.85;8.52;;;;;;;20.16;100.00;96348.53;1029381;28;20046;-73
2023/08/21 01:10:07;;;;;;;9.00;7.68;;;;;;;20.09;100.00;96340.22;1024987;29;20053;-76
2023/08/21 01:11:14;;;;;;;16.00;8.85;;;;;;;20.14;100.00;96348.06;1024450;28;20580;-75
2023/08/21 01:11:50;;;;;;;9.75;7.68;;;;;;;20.09;100.00;96344.75;1026595;28;20187;-75
2023/08/21 01:12:26;;;;;;;14.35;8.43;;;;;;;20.06;100.00;96343.50;1026156;28;20646;-76
2023/08/21 01:13:06;;;;;;;16.08;8.23;;;;;;;20.05;100.00;96344.56;1030700;28;20022;-75
2023/08/21 01:14:01;;;;;;;17.63;8.23;;;;;;;20.06;100.00;96350.72;1026515;28;20034;-78
2023/08/21 01:14:36;;;;;;;13.25;8.35;;;;;;;20.05;100.00;96351.78;1030603;28;20105;-75
2023/08/21 01:15:07;;;;;;;24.08;8.82;;;;;;;20.04;100.00;96356.34;1026620;28;20023;-75
2023/08/21 01:15:37;;;;;;;10.88;8.32;;;;;;;20.03;100.00;96349.44;1026480;28;20111;-75
2023/08/21 01:16:08;;;;;;;11.35;8.25;;;;;;;20.04;100.00;96353.66;1023844;28;20023;-73
2023/08/21 01:16:38;;;;;;;10.57;8.10;;;;;;;20.03;100.00;96352.09;1026903;28;20031;-74
2023/08/21 01:17:12;;;;;;;9.90;8.02;;;;;;;20.01;100.00;96357.72;1026329;28;20770;-74
2023/08/21 01:17:43;;;;;;;10.00;7.90;;;;;;;19.99;100.00;96354.59;1022210;29;20046;-75
2023/08/21 01:18:13;;;;;;;11.13;8.32;;;;;;;19.91;100.00;96344.69;1022443;29;20039;-75
2023/08/21 01:18:44;;;;;;;9.90;8.30;;;;;;;19.91;100.00;96349.22;1026234;28;20029;-75
2023/08/21 01:19:37;;;;;;;8.73;7.88;;;;;;;19.95;100.00;96353.66;1022485;28;20038;-73
2023/08/21 01:20:10;;;;;;;8.60;7.68;;;;;;;19.95;100.00;96358.97;1026505;28;20030;-76
2023/08/21 01:20:41;;;;;;;11.60;8.15;;;;;;;19.95;100.00;96363.50;1027967;28;20027;-74
2023/08/21 01:21:11;;;;;;;9.00;7.53;;;;;;;19.94;100.00;96357.38;1032423;28;20030;-76
2023/08/21 01:21:41;;;;;;;10.90;8.23;;;;;;;19.94;100.00;96365.38;1033253;28;20041;-75
2023/08/21 01:22:12;;;;;;;10.45;8.27;;;;;;;19.93;100.00;96360.38;1028554;28;20050;-73
2023/08/21 01:22:46;;;;;;;11.43;8.48;;;;;;;19.88;100.00;96353.28;1025029;29;20046;-75
2023/08/21 01:23:48;;;;;;;12.20;8.40;;;;;;;19.92;100.00;96367.56;1024664;29;20026;-77
2023/08/21 01:24:20;;;;;;;10.07;7.70;;;;;;;19.92;100.00;96362.25;1032025;28;20574;-76
2023/08/21 01:24:51;;;;;;;10.75;8.07;;;;;;;19.93;100.00;96361.16;1028096;28;20047;-75
2023/08/21 01:25:22;;;;;;;9.80;7.75;;;;;;;19.91;100.00;96355.34;1030090;28;20054;-75
2023/08/21 01:25:52;;;;;;;13.10;9.18;;;;;;;19.85;100.00;96356.59;1030735;28;20030;-76
2023/08/21 01:26:22;;;;;;;10.82;7.95;;;;;;;19.90;100.00;96363.66;1022508;28;20032;-76
2023/08/21 01:26:53;;;;;;;9.00;8.00;;;;;;;19.88;100.00;96368.47;1026339;28;20022;-75
2023/08/21 01:27:23;;;;;;;9.60;8.07;;;;;;;19.91;100.00;96368.66;1022420;28;20023;-74
2023/08/21 01:27:54;;;;;;;11.32;8.00;;;;;;;19.84;100.00;96362.97;1022639;28;20025;-73
2023/08/21 01:28:24;;;;;;;11.98;8.63;;;;;;;19.88;100.00;96368.47;1022443;29;20042;-75
2023/08/21 01:28:55;;;;;;;10.90;8.32;;;;;;;19.88;100.00;96369.25;1022436;28;20019;-76
2023/08/21 01:29:25;;;;;;;18.17;8.93;;;;;;;19.87;100.00;96367.69;1026511;28;20074;-75
2023/08/21 01:29:56;;;;;;;9.75;8.10;;;;;;;19.83;100.00;96361.41;1022677;28;20054;-76
2023/08/21 01:30:29;;;;;;;9.52;8.60;;;;;;;19.85;100.00;96367.25;1018071;29;20028;-75
2023/08/21 01:31:26;;;;;;;8.90;8.10;;;;;;;19.84;100.00;96368.31;1022120;29;20027;-74
2023/08/21 01:31:58;;;;;;;9.05;8.02;;;;;;;19.83;100.00;96365.97;1026580;28;20042;-73
2023/08/21 01:32:55;;;;;;;11.93;8.35;;;;;;;19.80;100.00;96364.69;1034285;28;20022;-74
2023/08/21 01:33:26;;;;;;;11.10;8.60;;;;;;;19.74;100.00;96368.56;1033792;28;20480;-75
2023/08/21 01:33:59;;;;;;;10.82;9.00;;;;;;;19.73;100.00;96367.00;1026528;28;20026;-75
2023/08/21 01:34:33;;;;;;;12.57;8.35;;;;;;;19.74;100.00;96371.22;1026491;28;20041;-73
2023/08/21 01:35:03;;;;;;;15.02;8.77;;;;;;;19.74;100.00;96373.91;1018582;29;20023;-75
2023/08/21 01:35:35;;;;;;;12.02;8.27;;;;;;;19.74;100.00;96374.69;1026331;28;20027;-72
2023/08/21 01:36:05;;;;;;;14.60;8.63;;;;;;;19.75;100.00;96375.47;1022427;29;20814;-75
2023/08/21 01:36:36;;;;;;;9.45;8.35;;;;;;;19.72;100.00;96366.22;1021728;29;20118;-75
2023/08/21 01:37:07;;;;;;;13.10;8.45;;;;;;;19.74;100.00;96373.91;1014602;29;20024;-75
2023/08/21 01:37:37;;;;;;;11.55;8.52;;;;;;;19.66;100.00;96359.44;1019988;29;20019;-74
2023/08/21 01:38:08;;;;;;;8.75;7.82;;;;;;;19.70;100.00;96362.28;1018450;29;20012;-78
2023/08/21 01:38:38;;;;;;;10.68;8.02;;;;;;;19.74;100.00;96372.00;1022497;29;20286;-75
2023/08/21 01:39:09;;;;;;;9.63;8.55;;;;;;;19.78;100.00;96374.84;1026399;28;20101;-74
2023/08/21 01:39:39;;;;;;;10.02;8.25;;;;;;;19.75;100.00;96364.81;1026205;28;20125;-75
2023/08/21 01:40:10;;;;;;;10.15;7.70;;;;;;;19.76;100.00;96366.41;1030388;28;20041;-75
2023/08/21 01:40:41;;;;;;;12.02;8.48;;;;;;;19.82;100.00;96370.50;1029821;28;20022;-74
2023/08/21 01:41:11;;;;;;;10.32;8.52;;;;;;;19.83;100.00;96377.41;1030520;28;20019;-76
2023/08/21 01:41:42;;;;;;;13.80;8.35;;;;;;;19.76;100.00;96363.75;1026367;28;20030;-75
2023/08/21 01:42:12;;;;;;;12.90;8.55;;;;;;;19.82;100.00;96369.69;1026288;28;20652;-74
2023/08/21 01:42:43;;;;;;;14.98;8.77;;;;;;;19.76;100.00;96363.75;1030221;28;20026;-75
2023/08/21 01:43:13;;;;;;;14.13;8.63;;;;;;;19.78;100.00;96374.84;1030278;28;20023;-76
2023/08/21 01:43:44;;;;;;;22.58;9.23;;;;;;;19.77;100.00;96370.63;1026243;28;20497;-74
2023/08/21 01:44:14;;;;;;;17.35;8.85;;;;;;;19.75;100.00;96372.81;1026461;28;20057;-76
2023/08/21 01:44:47;;;;;;;16.95;8.85;;;;;;;19.72;100.00;96376.09;1026330;28;20465;-73
2023/08/21 01:45:18;;;;;;;9.82;8.20;;;;;;;19.72;100.00;96370.78;1027237;28;20027;-74
2023/08/21 01:45:48;;;;;;;12.65;8.55;;;;;;;19.70;100.00;96376.38;1030761;28;20078;-73
2023/08/21 01:46:19;;;;;;;10.23;8.52;;;;;;;19.68;100.00;96370.56;1026366;28;20034;-74
2023/08/21 01:46:49;;;;;;;11.70;8.07;;;;;;;19.67;100.00;96373.56;1022258;28;20059;-76
2023/08/21 01:47:19;;;;;;;12.35;8.98;;;;;;;19.67;100.00;96384.19;1018521;29;20130;-74
2023/08/21 01:47:50;;;;;;;9.38;8.43;;;;;;;19.66;100.00;96377.31;1018393;28;20035;-75
2023/08/21 01:48:21;;;;;;;13.68;8.52;;;;;;;19.62;100.00;96368.34;1022485;28;20031;-74
2023/08/21 01:48:51;;;;;;;14.30;9.00;;;;;;;19.67;100.00;96376.22;1026568;28;20031;-75
2023/08/21 01:49:21;;;;;;;11.85;8.02;;;;;;;19.60;100.00;96368.63;1030605;28;20034;-74
2023/08/21 01:49:55;;;;;;;12.05;8.65;;;;;;;19.63;100.00;96375.22;1030741;28;20817;-77
2023/08/21 01:50:25;;;;;;;11.55;9.05;;;;;;;19.65;100.00;96375.72;1033355;28;20026;-73
2023/08/21 01:50:56;;;;;;;9.90;8.63;;;;;;;19.64;100.00;96376.81;1030337;28;20577;-74
2023/08/21 01:51:26;;;;;;;12.73;8.55;;;;;;;19.64;100.00;96379.47;1030502;28;20035;-74
2023/08/21 01:51:57;;;;;;;12.70;8.93;;;;;;;19.62;100.00;96379.78;1030256;28;20077;-76
2023/08/21 01:52:27;;;;;;;9.60;8.65;;;;;;;19.62;100.00;96377.09;1034819;28;20471;-74
2023/08/21 01:52:57;;;;;;;12.35;8.82;;;;;;;19.61;100.00;96380.06;1038508;28;20083;-72
2023/08/21 01:53:28;;;;;;;9.55;8.57;;;;;;;19.62;100.00;96371.00;1030252;28;20038;-74
2023/08/21 01:53:59;;;;;;;10.00;8.25;;;;;;;19.63;100.00;96383.22;1030415;28;20428;-72
2023/08/21 01:54:32;;;;;;;14.68;8.65;;;;;;;19.64;100.00;96376.81;1026549;28;20042;-75
2023/08/21 01:55:03;;;;;;;12.48;8.48;;;;;;;19.57;100.00;96368.44;1027109;28;20090;-75
2023/08/21 01:55:34;;;;;;;12.88;8.65;;;;;;;19.55;100.00;96377.53;1030361;28;20031;-73
2023/08/21 01:56:04;;;;;;;9.52;8.50;;;;;;;19.58;100.00;96378.00;1026379;28;20030;-74
2023/08/21 01:56:36;;;;;;;9.68;8.68;;;;;;;19.57;100.00;96376.44;1022507;28;20039;-75
2023/08/21 01:57:06;;;;;;;9.38;8.30;;;;;;;19.52;100.00;96382.69;1026642;28;20116;-75
2023/08/21 01:57:37;;;;;;;9.57;8.57;;;;;;;19.46;100.00;96375.91;1031196;28;20587;-75
2023/08/21 01:58:07;;;;;;;9.05;8.25;;;;;;;19.47;100.00;96380.91;1027140;28;20089;-73
2023/08/21 01:58:38;;;;;;;9.23;8.32;;;;;;;19.48;100.00;96377.19;1030944;28;20030;-74
2023/08/21 01:59:08;;;;;;;10.02;8.63;;;;;;;19.50;100.00;96382.19;1025244;28;20046;-76
2023/08/21 01:59:39;;;;;;;10.23;8.73;;;;;;;19.46;100.00;96374.03;1026999;28;20524;-75
2023/08/21 02:00:10;;;;;;;10.77;8.52;;;;;;;19.47;100.00;96380.91;1026921;28;20027;-75
2023/08/21 02:00:40;;;;;;;11.57;8.60;;;;;;;19.48;100.00;96382.50;1026750;28;20644;-74
2023/08/21 02:01:11;;;;;;;9.40;8.38;;;;;;;19.45;100.00;96379.63;1027048;28;20035;-75
2023/08/21 02:01:41;;;;;;;9.60;8.63;;;;;;;19.47;100.00;96382.78;1023338;28;20568;-73
2023/08/21 02:02:11;;;;;;;9.35;8.32;;;;;;;19.44;100.00;96376.19;1030798;28;20038;-74
2023/08/21 02:02:42;;;;;;;14.15;8.63;;;;;;;19.40;100.00;96379.78;1031110;28;20420;-74
2023/08/21 02:03:12;;;;;;;10.68;8.73;;;;;;;19.39;100.00;96379.00;1031322;28;20077;-76
2023/08/21 02:03:43;;;;;;;10.25;8.88;;;;;;;19.37;100.00;96383.81;1031071;28;20031;-74
2023/08/21 02:04:13;;;;;;;10.15;9.15;;;;;;;19.36;100.00;96382.25;1031217;28;20022;-74
2023/08/21 02:04:44;;;;;;;11.25;8.48;;;;;;;19.35;100.00;96391.34;1027425;28;20102;-75
2023/08/21 02:05:14;;;;;;;11.38;9.25;;;;;;;19.34;100.00;96387.09;1031173;28;20029;-75
2023/08/21 02:05:45;;;;;;;9.82;8.90;;;;;;;19.33;100.00;96390.84;1035235;28;20037;-74
2023/08/21 02:06:15;;;;;;;10.63;8.43;;;;;;;19.31;100.00;96388.50;1035236;28;20022;-74
2023/08/21 02:06:46;;;;;;;9.70;8.68;;;;;;;19.28;100.00;96383.78;1034992;28;20393;-75
2023/08/21 02:07:16;;;;;;;9.50;8.60;;;;;;;19.32;100.00;96386.63;1035120;28;20099;-77
2023/08/21 02:07:47;;;;;;;15.00;9.00;;;;;;;19.29;100.00;96396.00;1035253;28;20049;-76
2023/08/21 02:08:17;;;;;;;10.10;8.48;;;;;;;19.27;100.00;96386.72;1035391;28;20089;-74
2023/08/21 02:08:48;;;;;;;11.90;9.20;;;;;;;19.24;100.00;96388.09;1030922;28;20632;-73
2023/08/21 02:09:19;;;;;;;21.08;9.70;;;;;;;19.26;100.00;96396.59;1031077;28;20055;-75
2023/08/21 02:09:49;;;;;;;29.25;10.38;;;;;;;19.26;100.00;96391.25;1031079;28;20501;-75
2023/08/21 02:10:20;;;;;;;13.50;9.02;;;;;;;19.25;100.00;96391.59;1030626;28;20034;-76
2023/08/21 02:10:50;;;;;;;15.68;9.07;;;;;;;19.24;100.00;96396.09;1030737;28;20070;-73
2023/08/21 02:11:21;;;;;;;21.23;9.65;;;;;;;19.23;100.00;96391.88;1023073;29;20079;-75
2023/08/21 02:11:51;;;;;;;17.40;9.05;;;;;;;19.17;100.00;96400.25;1023108;29;20532;-76
2023/08/21 02:12:22;;;;;;;18.98;9.48;;;;;;;19.22;100.00;96397.50;1026664;28;20051;-75
2023/08/21 02:12:53;;;;;;;30.83;9.77;;;;;;;19.22;100.00;96395.63;1026956;28;20661;-75
2023/08/21 02:13:24;;;;;;;17.50;9.25;;;;;;;19.17;100.00;96386.97;1027601;28;20041;-74
2023/08/21 02:13:54;;;;;;;12.65;9.48;;;;;;;19.17;100.00;96403.72;1030716;28;20810;-75
2023/08/21 02:14:25;;;;;;;20.85;10.07;;;;;;;19.18;100.00;96393.84;1027384;28;20035;-77
2023/08/21 02:14:55;;;;;;;10.70;9.27;;;;;;;19.15;100.00;96399.78;1030922;28;20121;-76
2023/08/21 02:15:29;;;;;;;19.65;9.70;;;;;;;19.10;100.00;96382.06;1032100;28;20331;-74
2023/08/21 02:16:02;;;;;;;13.68;9.00;;;;;;;19.13;100.00;96404.63;1039232;28;20025;-73
2023/08/21 02:16:33;;;;;;;20.13;9.82;;;;;;;19.11;100.00;96396.16;1039202;28;20051;-76
2023/08/21 02:17:05;;;;;;;16.83;9.25;;;;;;;19.04;100.00;96384.03;1030846;28;20401;-77
2023/08/21 02:17:35;;;;;;;11.13;9.82;;;;;;;19.07;100.00;96402.06;1019156;29;20563;-73
2023/08/21 02:18:06;;;;;;;13.73;9.70;;;;;;;19.08;100.00;96400.22;1031088;28;20104;-74
2023/08/21 02:18:36;;;;;;;13.73;9.02;;;;;;;19.02;100.00;96391.56;1031014;28;20116;-76
2023/08/21 02:19:07;;;;;;;11.48;9.25;;;;;;;18.99;100.00;96392.16;1030830;28;20034;-74
2023/08/21 02:19:37;;;;;;;12.77;9.18;;;;;;;19.03;100.00;96400.31;1031054;28;20030;-73
2023/08/21 02:20:09;;;;;;;12.70;9.70;;;;;;;19.03;100.00;96398.44;1035143;28;20045;-74
2023/08/21 02:20:40;;;;;;;14.70;9.77;;;;;;;19.03;100.00;96403.75;1034585;28;20962;-75
2023/08/21 02:21:10;;;;;;;10.23;8.90;;;;;;;19.02;100.00;96402.19;1026622;28;20041;-74
2023/08/21 02:21:41;;;;;;;11.10;9.15;;;;;;;19.03;100.00;96400.31;1023531;28;20035;-75
2023/08/21 02:22:11;;;;;;;10.55;9.35;;;;;;;19.02;100.00;96401.41;1023582;28;20052;-72
2023/08/21 02:22:42;;;;;;;12.32;9.52;;;;;;;19.01;100.00;96400.63;1027037;28;20087;-73
2023/08/21 02:23:12;;;;;;;11.40;9.73;;;;;;;18.99;100.00;96402.78;1022097;28;20031;-74
2023/08/21 02:23:43;;;;;;;14.73;9.13;;;;;;;18.91;100.00;96387.53;1027785;28;20497;-74
2023/08/21 02:24:13;;;;;;;19.70;9.80;;;;;;;19.00;100.00;96404.34;1027765;28;20106;-76
2023/08/21 02:24:44;;;;;;;16.27;9.75;;;;;;;18.99;100.00;96408.09;1031887;28;20030;-73
2023/08/21 02:25:14;;;;;;;10.40;9.13;;;;;;;18.98;100.00;96403.88;1031133;28;20027;-73
2023/08/21 02:25:45;;;;;;;11.90;9.57;;;;;;;18.93;100.00;96392.56;1026902;28;20515;-75